Time;durP1;ratioP1;P1;durP2;ratioP2;P2;SDS_P1;SDS_P2;PMS_P1;PMS_P2;Temp;Humidity;BMP_temperature;BMP_pressure;BME280_temperature;BME280_humidity;BME280_pressure;Samples;Min_cycle;Max_cycle;Signal;HPM_P1;HPM_P2
2022/05/31 00:01:19;;;;;;;5.37;1.40;;;10.50;99.90;;;;;;5091373;28;20173;-59
2022/05/31 00:03:45;;;;;;;3.83;1.50;;;11.90;99.90;;;;;;5091424;28;20567;-60
2022/05/31 00:06:11;;;;;;;8.57;1.97;;;;;;;;;;5091560;28;20172;-60
2022/05/31 00:08:37;;;;;;;5.83;1.67;;;12.00;99.90;;;;;;5091249;28;20208;-60
2022/05/31 00:11:03;;;;;;;8.43;2.23;;;12.00;99.90;;;;;;5091187;28;20168;-60
2022/05/31 00:13:29;;;;;;;8.57;2.37;;;12.00;99.90;;;;;;5091200;28;20179;-60
2022/05/31 00:15:55;;;;;;;10.17;2.37;;;11.90;99.90;;;;;;5091214;28;20179;-60
2022/05/31 00:18:21;;;;;;;8.07;2.40;;;11.90;99.90;;;;;;5091087;28;20226;-60
2022/05/31 00:20:47;;;;;;;5.93;1.90;;;11.80;99.90;;;;;;5091234;28;20175;-60
2022/05/31 00:23:13;;;;;;;7.77;2.20;;;11.70;99.90;;;;;;5090413;28;20202;-60
2022/05/31 00:25:39;;;;;;;10.80;2.00;;;11.60;99.90;;;;;;5091051;28;20180;-59
2022/05/31 00:28:05;;;;;;;7.80;1.67;;;11.70;99.90;;;;;;5090790;28;20200;-59
2022/05/31 00:30:32;;;;;;;7.77;1.80;;;11.70;99.90;;;;;;5091016;28;20683;-59
2022/05/31 00:32:57;;;;;;;7.30;2.30;;;11.70;99.90;;;;;;5090990;28;20175;-60
2022/05/31 00:35:29;;;;;;;6.33;1.70;;;11.70;99.90;;;;;;5090870;28;20194;-59
2022/05/31 00:37:56;;;;;;;5.60;1.83;;;11.80;99.90;;;;;;5091046;28;20182;-60
2022/05/31 00:40:24;;;;;;;7.70;1.67;;;11.90;99.90;;;;;;5090835;28;20184;-59
2022/05/31 00:42:53;;;;;;;8.63;2.37;;;11.80;99.90;;;;;;5090848;28;20660;-60
2022/05/31 00:45:22;;;;;;;8.10;1.83;;;11.40;99.90;;;;;;5090751;28;20546;-60
2022/05/31 00:47:48;;;;;;;7.93;1.60;;;11.70;99.90;;;;;;5090804;28;20644;-59
2022/05/31 00:50:23;;;;;;;8.50;1.80;;;11.70;99.90;;;;;;5090871;28;20176;-60
2022/05/31 00:52:53;;;;;;;7.53;1.80;;;11.70;99.90;;;;;;5090795;28;20163;-59
2022/05/31 00:55:42;;;;;;;9.97;2.07;;;11.70;99.90;;;;;;5090692;28;20176;-59
2022/05/31 00:58:29;;;;;;;8.50;2.00;;;10.20;99.90;;;;;;5090660;28;20171;-60
2022/05/31 01:00:57;;;;;;;4.90;2.00;;;11.60;99.90;;;;;;5090744;28;20171;-60
2022/05/31 01:03:23;;;;;;;10.73;1.93;;;11.60;99.90;;;;;;5090585;28;20176;-60
2022/05/31 01:05:49;;;;;;;6.60;2.17;;;11.70;99.90;;;;;;5090517;28;20259;-60
2022/05/31 01:08:15;;;;;;;4.63;1.90;;;11.60;99.90;;;;;;5090533;28;20278;-58
2022/05/31 01:10:42;;;;;;;10.43;2.20;;;11.60;99.90;;;;;;5090566;28;20179;-59
2022/05/31 01:13:11;;;;;;;7.73;2.23;;;11.60;99.90;;;;;;5090697;28;20200;-59
2022/05/31 01:15:37;;;;;;;4.73;2.03;;;11.70;99.90;;;;;;5090446;28;20187;-58
2022/05/31 01:18:04;;;;;;;8.67;2.40;;;11.60;99.90;;;;;;5090188;28;20695;-58
2022/05/31 01:20:29;;;;;;;9.03;2.43;;;11.50;99.90;;;;;;5090553;28;20198;-58
2022/05/31 01:22:57;;;;;;;7.77;2.30;;;11.60;99.90;;;;;;5090410;28;20168;-59
2022/05/31 01:25:41;;;;;;;6.13;2.03;;;11.60;99.90;;;;;;5090412;28;20167;-59
2022/05/31 01:28:17;;;;;;;12.03;2.70;;;11.60;99.90;;;;;;5090325;28;20207;-59
2022/05/31 01:30:59;;;;;;;8.77;2.60;;;11.50;99.90;;;;;;5090286;28;20678;-58
2022/05/31 01:33:44;;;;;;;14.40;2.33;;;11.40;99.90;;;;;;5090691;28;20175;-59
2022/05/31 01:36:24;;;;;;;8.80;2.20;;;11.20;99.90;;;;;;5094105;28;20171;-59
2022/05/31 01:39:01;;;;;;;5.07;2.00;;;11.50;99.90;;;;;;5094221;28;20262;-59
2022/05/31 01:41:43;;;;;;;5.37;2.00;;;11.60;99.90;;;;;;5094038;28;20184;-59
2022/05/31 01:44:13;;;;;;;5.27;1.60;;;11.40;99.90;;;;;;5092645;28;20624;-58
2022/05/31 01:46:39;;;;;;;6.37;1.93;;;11.40;99.90;;;;;;5093949;28;20187;-59
2022/05/31 01:49:10;;;;;;;6.33;2.00;;;11.40;99.90;;;;;;5093844;28;20215;-59
2022/05/31 01:51:37;;;;;;;6.23;1.70;;;11.40;99.90;;;;;;5093907;28;20270;-59
2022/05/31 01:54:04;;;;;;;9.53;2.50;;;11.40;99.90;;;;;;5093831;28;20187;-58
2022/05/31 01:56:30;;;;;;;7.00;1.80;;;11.40;99.90;;;;;;5093887;28;20220;-58
2022/05/31 01:58:58;;;;;;;3.53;1.70;;;11.30;99.90;;;;;;5093663;28;20232;-59
2022/05/31 02:01:24;;;;;;;5.40;2.07;;;11.30;99.90;;;;;;5093660;28;20254;-59
2022/05/31 02:03:51;;;;;;;3.50;1.60;;;11.30;99.90;;;;;;5093727;28;20175;-58
2022/05/31 02:06:29;;;;;;;14.97;2.97;;;11.30;99.90;;;;;;5093600;28;20240;-58
2022/05/31 02:08:54;;;;;;;9.90;2.07;;;11.30;99.90;;;;;;5093654;28;20211;-58
2022/05/31 02:11:20;;;;;;;8.67;2.00;;;10.90;99.90;;;;;;5093474;28;20628;-58
2022/05/31 02:13:46;;;;;;;9.30;1.60;;;11.10;99.90;;;;;;5093462;28;20567;-58
2022/05/31 02:16:13;;;;;;;3.53;1.60;;;11.10;99.90;;;;;;5093554;28;20176;-59
2022/05/31 02:21:23;;;;;;;7.13;1.87;;;11.00;99.90;;;;;;5093555;28;20229;-58
2022/05/31 02:23:49;;;;;;;7.27;1.63;;;10.90;99.90;;;;;;5093238;28;20175;-59
2022/05/31 02:26:15;;;;;;;3.87;1.50;;;10.80;99.90;;;;;;5093314;28;20546;-59
2022/05/31 02:28:41;;;;;;;7.30;1.67;;;10.80;99.90;;;;;;5093039;28;20310;-59
2022/05/31 02:31:07;;;;;;;6.37;1.67;;;10.90;99.90;;;;;;5092985;28;20175;-60
2022/05/31 02:33:33;;;;;;;5.70;1.70;;;10.70;99.90;;;;;;5093216;28;20805;-58
2022/05/31 02:35:58;;;;;;;8.40;1.93;;;10.70;99.90;;;;;;5092993;28;20164;-59
2022/05/31 02:38:24;;;;;;;13.23;1.80;;;10.50;99.90;;;;;;5093095;28;20586;-58
2022/05/31 02:40:50;;;;;;;8.07;1.73;;;10.50;99.90;;;;;;5093286;28;20620;-58
2022/05/31 02:43:16;;;;;;;9.00;2.07;;;10.60;99.90;;;;;;5092893;28;20650;-59
2022/05/31 02:45:41;;;;;;;5.60;1.73;;;10.50;99.90;;;;;;5091829;28;20172;-59
2022/05/31 02:48:08;;;;;;;7.07;1.90;;;10.60;99.90;;;;;;5092879;28;20216;-59
2022/05/31 02:50:33;;;;;;;5.03;1.43;;;10.60;99.90;;;;;;5092682;28;20172;-59
2022/05/31 02:52:59;;;;;;;5.73;1.73;;;10.60;99.90;;;;;;5092660;28;20164;-58
2022/05/31 02:55:24;;;;;;;4.90;1.87;;;10.50;99.90;;;;;;5092607;28;20247;-59
2022/05/31 02:57:50;;;;;;;7.90;1.83;;;10.50;99.90;;;;;;5092692;28;20202;-59
2022/05/31 03:00:16;;;;;;;6.20;1.83;;;10.50;99.90;;;;;;5092543;28;20194;-59
2022/05/31 03:02:42;;;;;;;6.63;1.47;;;10.50;99.90;;;;;;5092653;28;20171;-59
2022/05/31 03:05:08;;;;;;;3.87;1.60;;;10.30;99.90;;;;;;5092500;28;20230;-59
2022/05/31 03:07:34;;;;;;;6.50;1.50;;;10.30;99.90;;;;;;5092328;28;20187;-59
2022/05/31 03:09:59;;;;;;;9.17;1.87;;;10.20;99.90;;;;;;5092270;28;20212;-59
2022/05/31 03:12:28;;;;;;;6.47;1.80;;;10.10;99.90;;;;;;5092336;28;20163;-59
2022/05/31 03:15:06;;;;;;;3.60;1.70;;;10.10;99.90;;;;;;5092220;28;20179;-59
2022/05/31 03:17:38;;;;;;;5.87;1.60;;;10.00;99.90;;;;;;5091938;28;20223;-59
2022/05/31 03:20:14;;;;;;;4.17;1.63;;;10.00;99.90;;;;;;5092215;28;20232;-59
2022/05/31 03:22:44;;;;;;;6.37;1.47;;;10.10;99.90;;;;;;5092109;28;20211;-59
2022/05/31 03:25:17;;;;;;;7.20;1.33;;;10.10;99.90;;;;;;5092031;28;20195;-59
2022/05/31 03:27:44;;;;;;;3.43;1.70;;;10.00;99.90;;;;;;5092095;28;20172;-59
2022/05/31 03:30:11;;;;;;;4.10;1.17;;;10.10;99.90;;;;;;5091869;28;20211;-59
2022/05/31 03:32:37;;;;;;;4.07;1.40;;;;;;;;;;5092197;28;20187;-59
2022/05/31 03:35:05;;;;;;;4.07;1.10;;;10.00;99.90;;;;;;5091905;28;20266;-59
2022/05/31 03:37:30;;;;;;;4.40;1.53;;;10.10;99.90;;;;;;5091831;28;20250;-59
2022/05/31 03:39:56;;;;;;;3.30;1.20;;;10.10;99.90;;;;;;5091758;28;20737;-59
2022/05/31 03:42:21;;;;;;;3.93;1.33;;;10.20;99.90;;;;;;5091728;28;20168;-59
2022/05/31 03:44:48;;;;;;;2.60;1.10;;;;;;;;;;5091698;28;20190;-59
2022/05/31 03:47:13;;;;;;;3.83;1.20;;;10.20;99.90;;;;;;5091644;28;20175;-59
2022/05/31 03:49:39;;;;;;;2.03;1.10;;;10.30;99.90;;;;;;5091609;28;20204;-59
2022/05/31 03:52:05;;;;;;;3.57;1.17;;;10.40;99.90;;;;;;5091518;28;20183;-59
2022/05/31 03:54:36;;;;;;;2.17;1.20;;;10.30;99.90;;;;;;5091552;28;20191;-59
2022/05/31 03:57:02;;;;;;;3.73;1.30;;;10.00;99.90;;;;;;5091561;28;20168;-60
2022/05/31 03:59:29;;;;;;;3.97;0.90;;;10.30;99.90;;;;;;5091399;28;20218;-59
2022/05/31 04:01:55;;;;;;;6.77;1.20;;;10.30;99.90;;;;;;5091557;28;20175;-59
2022/05/31 04:04:20;;;;;;;2.13;0.93;;;10.30;99.90;;;;;;5091327;28;20548;-59
2022/05/31 04:06:46;;;;;;;2.03;1.10;;;10.30;99.90;;;;;;5091254;28;20179;-59
2022/05/31 04:09:12;;;;;;;4.23;1.23;;;10.30;99.90;;;;;;5091122;28;20276;-59
2022/05/31 04:11:37;;;;;;;6.23;1.57;;;10.50;99.90;;;;;;5091152;28;20175;-59
2022/05/31 04:14:03;;;;;;;2.93;1.33;;;10.50;99.90;;;;;;5091156;28;20195;-59
2022/05/31 04:16:29;;;;;;;3.73;1.40;;;10.60;99.90;;;;;;5091203;28;20270;-59
2022/05/31 04:18:55;;;;;;;2.90;1.43;;;10.50;99.90;;;;;;5090984;28;20215;-59
2022/05/31 04:21:21;;;;;;;3.53;1.50;;;10.50;99.90;;;;;;5091045;28;20164;-58
2022/05/31 04:23:58;;;;;;;6.70;1.63;;;10.60;99.90;;;;;;5090960;28;20176;-59
2022/05/31 04:26:25;;;;;;;6.50;1.57;;;10.60;99.90;;;;;;5090973;28;20171;-58
2022/05/31 04:28:51;;;;;;;5.60;1.33;;;10.60;99.90;;;;;;5090822;28;20206;-59
2022/05/31 04:31:17;;;;;;;3.03;1.50;;;10.60;99.90;;;;;;5090900;28;20168;-59
2022/05/31 04:33:43;;;;;;;5.37;1.80;;;10.80;99.90;;;;;;5090887;28;20183;-59
2022/05/31 04:36:12;;;;;;;3.43;1.50;;;10.70;99.90;;;;;;5090735;28;20266;-59
2022/05/31 04:38:38;;;;;;;3.10;1.17;;;10.70;99.90;;;;;;5090924;28;20195;-59
2022/05/31 04:41:04;;;;;;;3.53;1.47;;;10.70;99.90;;;;;;5090990;28;20590;-59
2022/05/31 04:43:30;;;;;;;4.67;1.60;;;10.70;99.90;;;;;;5090843;28;20667;-59
2022/05/31 04:45:56;;;;;;;6.57;1.57;;;10.60;99.90;;;;;;5090787;28;20198;-59
2022/05/31 04:48:21;;;;;;;3.27;1.40;;;10.70;99.90;;;;;;5090696;28;20679;-59
2022/05/31 04:50:47;;;;;;;5.53;1.43;;;11.00;99.90;;;;;;5090718;28;20172;-59
2022/05/31 04:53:13;;;;;;;3.40;1.10;;;10.80;99.90;;;;;;5090676;28;20172;-59
2022/05/31 04:55:39;;;;;;;2.73;1.20;;;10.70;99.90;;;;;;5090684;28;20624;-59
2022/05/31 04:58:05;;;;;;;3.30;1.73;;;10.70;99.90;;;;;;5090703;28;20168;-59
2022/05/31 05:00:30;;;;;;;4.83;1.57;;;10.70;99.90;;;;;;5090700;28;20168;-59
2022/05/31 05:02:57;;;;;;;4.97;1.37;;;10.70;99.90;;;;;;5090567;28;20225;-59
2022/05/31 05:05:23;;;;;;;6.23;1.30;;;;;;;;;;5090575;28;20675;-59
2022/05/31 05:07:49;;;;;;;5.03;1.40;;;10.70;99.90;;;;;;5090765;28;20229;-59
2022/05/31 05:10:14;;;;;;;3.77;1.20;;;10.80;99.90;;;;;;5093791;28;20625;-59
2022/05/31 05:12:40;;;;;;;3.80;1.13;;;11.00;99.90;;;;;;5094709;28;20534;-59
2022/05/31 05:15:06;;;;;;;4.07;1.23;;;10.90;99.90;;;;;;5094667;28;20168;-59
2022/05/31 05:17:32;;;;;;;4.10;1.27;;;10.90;99.90;;;;;;5094434;28;20220;-59
2022/05/31 05:19:58;;;;;;;1.90;1.00;;;10.80;99.90;;;;;;5094619;28;20167;-59
2022/05/31 05:22:24;;;;;;;5.83;1.30;;;10.90;99.90;;;;;;5094794;28;20236;-59
2022/05/31 05:24:49;;;;;;;4.37;1.50;;;10.80;99.90;;;;;;5094518;28;20652;-59
2022/05/31 05:27:15;;;;;;;5.37;1.60;;;10.70;99.90;;;;;;5094424;28;20300;-59
2022/05/31 05:32:25;;;;;;;3.60;1.50;;;10.50;99.90;;;;;;5094282;28;20199;-59
2022/05/31 05:34:55;;;;;;;4.63;1.67;;;10.20;99.90;;;;;;5094327;28;20207;-59
2022/05/31 05:37:23;;;;;;;5.77;2.07;;;10.20;99.90;;;;;;5094250;28;20201;-59
2022/05/31 05:39:49;;;;;;;8.80;2.20;;;;;;;;;;5094001;28;20172;-59
2022/05/31 05:42:16;;;;;;;9.83;2.20;;;10.20;99.90;;;;;;5092707;28;20817;-59
2022/05/31 05:44:42;;;;;;;5.23;1.90;;;10.20;99.90;;;;;;5093973;28;20182;-59
2022/05/31 05:47:14;;;;;;;9.60;2.10;;;10.20;99.90;;;;;;5094008;28;20270;-59
2022/05/31 05:49:40;;;;;;;5.57;2.30;;;10.40;99.90;;;;;;5093728;28;20641;-59
2022/05/31 05:52:11;;;;;;;15.33;1.87;;;10.40;99.90;;;;;;5093890;28;20168;-59
2022/05/31 05:54:37;;;;;;;10.93;2.33;;;10.30;99.90;;;;;;5093877;28;20191;-59
2022/05/31 05:57:03;;;;;;;14.03;2.20;;;10.20;99.90;;;;;;5093578;28;20172;-59
2022/05/31 05:59:29;;;;;;;8.67;1.67;;;;;;;;;;5093673;28;20172;-59
2022/05/31 06:01:59;;;;;;;4.93;2.10;;;10.50;99.90;;;;;;5093516;28;20309;-59
2022/05/31 06:04:43;;;;;;;6.97;2.17;;;10.50;99.90;;;;;;5093506;28;20636;-59
2022/05/31 06:07:20;;;;;;;5.30;2.00;;;10.60;99.90;;;;;;5093524;28;20224;-59
2022/05/31 06:10:01;;;;;;;4.70;1.90;;;10.70;99.90;;;;;;5093313;28;20635;-59
2022/05/31 06:12:34;;;;;;;5.43;1.83;;;10.80;99.90;;;;;;5093361;28;20632;-59
2022/05/31 06:15:07;;;;;;;7.23;1.90;;;10.70;99.90;;;;;;5093466;28;20168;-59
2022/05/31 06:17:39;;;;;;;5.73;2.27;;;10.70;99.90;;;;;;5093263;28;20322;-59
2022/05/31 06:20:07;;;;;;;6.20;1.90;;;10.80;99.90;;;;;;5092110;28;20172;-59
2022/05/31 06:22:36;;;;;;;12.93;2.00;;;10.80;99.90;;;;;;5093167;28;20180;-59
2022/05/31 06:25:03;;;;;;;6.63;2.20;;;10.80;99.90;;;;;;5093267;28;20658;-59
2022/05/31 06:27:28;;;;;;;6.23;2.10;;;10.90;99.90;;;;;;5092994;28;20714;-59
2022/05/31 06:29:54;;;;;;;6.07;1.70;;;10.80;99.90;;;;;;5093162;28;20207;-59
2022/05/31 06:32:20;;;;;;;6.77;1.93;;;10.50;99.90;;;;;;5093178;28;20659;-59
2022/05/31 06:34:46;;;;;;;4.87;1.60;;;10.70;99.90;;;;;;5092998;28;20191;-59
2022/05/31 06:37:14;;;;;;;6.47;1.90;;;10.50;99.90;;;;;;5092994;28;20172;-59
2022/05/31 06:39:42;;;;;;;3.57;1.60;;;10.40;99.90;;;;;;5092930;28;20168;-59
2022/05/31 06:42:10;;;;;;;5.00;1.90;;;10.40;99.90;;;;;;5092997;28;20168;-59
2022/05/31 06:44:38;;;;;;;4.07;1.60;;;10.40;99.90;;;;;;5092919;28;20183;-59
2022/05/31 06:47:05;;;;;;;3.10;1.67;;;11.00;99.90;;;;;;5092790;28;20160;-59
2022/05/31 06:49:32;;;;;;;6.77;1.70;;;10.30;99.90;;;;;;5092613;28;20204;-59
2022/05/31 06:57:37;;;;;;;8.77;2.27;;;10.30;99.90;;;;;;5092884;28;20225;-59
2022/05/31 07:00:07;;;;;;;8.30;2.00;;;10.00;99.90;;;;;;5092476;28;20625;-59
2022/05/31 07:02:33;;;;;;;7.90;2.23;;;10.00;99.90;;;;;;5092547;28;20203;-59
2022/05/31 07:04:59;;;;;;;5.83;1.67;;;10.00;99.90;;;;;;5092308;28;20187;-59
2022/05/31 07:07:25;;;;;;;3.37;1.83;;;10.00;99.90;;;;;;5092394;28;20187;-59
2022/05/31 07:09:51;;;;;;;8.67;2.00;;;;;;;;;;5091094;28;20207;-59
2022/05/31 07:12:16;;;;;;;3.37;1.77;;;10.00;99.90;;;;;;5092128;28;20168;-59
2022/05/31 07:14:42;;;;;;;4.43;1.97;;;10.20;99.90;;;;;;5092503;28;20199;-59
2022/05/31 07:17:09;;;;;;;4.60;1.10;;;10.30;99.90;;;;;;5092185;28;20227;-59
2022/05/31 07:19:35;;;;;;;6.27;1.37;;;10.00;99.90;;;;;;5092139;28;20171;-59
2022/05/31 07:22:01;;;;;;;3.93;1.57;;;10.20;99.90;;;;;;5092088;28;20517;-60
2022/05/31 07:24:29;;;;;;;3.30;1.37;;;10.30;99.90;;;;;;5091951;28;20180;-60
2022/05/31 07:26:55;;;;;;;2.63;0.90;;;;;;;;;;5091873;28;20186;-60
2022/05/31 07:29:21;;;;;;;3.67;1.00;;;10.70;99.90;;;;;;5091689;28;20253;-59
2022/05/31 07:31:47;;;;;;;4.20;1.33;;;10.70;99.90;;;;;;5091415;28;20164;-59
2022/05/31 07:34:14;;;;;;;3.13;1.80;;;10.80;99.90;;;;;;5091790;28;20176;-59
2022/05/31 07:36:41;;;;;;;2.77;1.10;;;10.90;99.90;;;;;;5091732;28;20226;-60
2022/05/31 07:39:16;;;;;;;5.17;1.20;;;11.10;99.90;;;;;;5091620;28;20247;-59
2022/05/31 07:41:42;;;;;;;1.87;0.90;;;11.20;99.90;;;;;;5091712;28;20178;-60
2022/05/31 07:44:08;;;;;;;3.63;0.73;;;11.20;99.90;;;;;;5091711;28;20191;-60
2022/05/31 07:46:34;;;;;;;0.83;0.80;;;11.40;99.90;;;;;;5091673;28;20175;-59
2022/05/31 07:49:00;;;;;;;6.57;1.27;;;11.50;99.90;;;;;;5091657;28;20260;-59
2022/05/31 07:51:26;;;;;;;1.70;1.20;;;11.50;99.90;;;;;;5091565;28;20182;-59
2022/05/31 07:53:52;;;;;;;2.10;1.20;;;11.60;99.90;;;;;;5091332;28;20184;-59
2022/05/31 07:56:19;;;;;;;3.20;1.00;;;11.50;99.90;;;;;;5091520;28;20190;-59
2022/05/31 07:58:46;;;;;;;1.50;1.03;;;11.60;99.90;;;;;;5091379;28;20176;-59
2022/05/31 08:01:16;;;;;;;1.63;1.07;;;11.50;99.90;;;;;;5090320;28;20180;-60
2022/05/31 08:03:42;;;;;;;3.87;1.03;;;11.60;99.90;;;;;;5091329;28;20160;-60
2022/05/31 08:06:13;;;;;;;2.13;1.10;;;11.60;99.90;;;;;;5091390;28;20640;-59
2022/05/31 08:08:39;;;;;;;8.30;1.50;;;11.70;99.90;;;;;;5091096;28;20660;-60
2022/05/31 08:11:15;;;;;;;4.00;1.07;;;11.90;99.90;;;;;;5091086;28;20186;-60
2022/05/31 08:13:42;;;;;;;3.87;1.00;;;12.10;99.90;;;;;;5091168;28;20178;-58
2022/05/31 08:16:10;;;;;;;1.37;1.17;;;12.20;99.90;;;;;;5091058;28;20174;-58
2022/05/31 08:18:38;;;;;;;3.37;1.23;;;12.10;99.90;;;;;;5090605;28;20230;-58
2022/05/31 08:21:09;;;;;;;2.70;1.20;;;12.20;99.90;;;;;;5090869;28;20180;-62
2022/05/31 08:23:37;;;;;;;3.30;1.60;;;12.40;99.90;;;;;;5091011;28;20579;-59
2022/05/31 08:26:03;;;;;;;5.20;1.40;;;12.40;99.90;;;;;;5090965;28;20164;-59
2022/05/31 08:28:30;;;;;;;3.03;1.50;;;12.60;99.90;;;;;;5091037;28;20299;-59
2022/05/31 08:31:12;;;;;;;4.00;1.53;;;12.60;99.90;;;;;;5090806;28;20175;-59
2022/05/31 08:33:39;;;;;;;3.70;1.50;;;13.00;99.90;;;;;;5090792;28;20201;-59
2022/05/31 08:36:06;;;;;;;2.47;1.50;;;13.10;99.90;;;;;;5090906;28;20184;-61
2022/05/31 08:38:32;;;;;;;3.23;1.30;;;13.10;99.90;;;;;;5090789;28;20189;-59
2022/05/31 08:41:22;;;;;;;3.63;1.00;;;13.40;99.90;;;;;;5090844;28;20175;-59
2022/05/31 08:43:47;;;;;;;1.73;1.03;;;13.50;99.90;;;;;;5089874;28;20182;-59
2022/05/31 08:46:50;;;;;;;2.42;1.20;;;14.00;99.90;;;;;;5090583;28;20250;-59
2022/05/31 08:52:52;;;;;;;2.78;0.90;;;14.60;99.90;;;;;;5090697;28;20179;-58
2022/05/31 08:58:18;;;;;;;3.38;1.15;;;15.40;99.90;;;;;;5090288;28;20229;-59
2022/05/31 09:00:48;;;;;;;4.10;1.00;;;15.50;99.90;;;;;;5090275;28;20225;-59
2022/05/31 09:03:28;;;;;;;2.65;1.00;;;15.20;99.90;;;;;;5090461;28;20639;-59
2022/05/31 09:06:03;;;;;;;3.30;1.25;;;15.30;99.90;;;;;;5090644;28;20228;-59
2022/05/31 09:08:37;;;;;;;2.63;1.10;;;15.90;99.90;;;;;;5090457;28;20187;-59
2022/05/31 09:11:07;;;;;;;4.45;1.35;;;15.80;99.90;;;;;;5090365;28;20207;-59
2022/05/31 09:13:46;;;;;;;3.08;1.20;;;16.10;99.90;;;;;;5090702;28;20179;-59
2022/05/31 09:16:17;;;;;;;2.75;1.00;;;16.40;99.90;;;;;;5090704;28;20180;-59
2022/05/31 09:18:57;;;;;;;6.65;1.33;;;16.40;99.90;;;;;;5088860;28;20691;-59
2022/05/31 09:21:40;;;;;;;3.00;1.40;;;16.20;99.90;;;;;;5089057;28;20172;-59
2022/05/31 09:24:12;;;;;;;2.08;1.10;;;16.20;99.90;;;;;;5090591;28;20262;-59
2022/05/31 09:26:53;;;;;;;7.20;1.65;;;16.30;99.90;;;;;;5090229;28;20175;-59
2022/05/31 09:29:52;;;;;;;7.18;1.50;;;16.80;99.90;;;;;;5090194;28;20675;-57
2022/05/31 09:32:36;;;;;;;5.05;1.60;;;16.80;99.90;;;;;;5086053;28;20222;-57
2022/05/31 09:35:21;;;;;;;2.17;1.20;;;16.60;99.90;;;;;;5090285;28;20699;-58
2022/05/31 09:38:08;;;;;;;3.17;1.45;;;17.10;99.90;;;;;;5090259;28;20254;-58
2022/05/31 09:40:45;;;;;;;3.17;1.30;;;17.40;99.90;;;;;;5090208;28;20617;-58
2022/05/31 09:43:39;;;;;;;6.03;1.40;;;17.60;99.90;;;;;;5090092;28;20178;-58
2022/05/31 09:46:10;;;;;;;3.63;1.27;;;17.40;99.90;;;;;;5090141;28;20168;-58
2022/05/31 09:48:55;;;;;;;3.35;1.42;;;16.80;99.90;;;;;;5089885;28;20208;-58
2022/05/31 09:51:21;;;;;;;4.25;1.50;;;17.10;99.90;;;;;;5090139;28;20175;-58
2022/05/31 09:59:27;;;;;;;4.18;1.67;;;16.40;99.90;;;;;;5093911;28;20179;-60
2022/05/31 10:01:54;;;;;;;5.28;1.58;;;15.80;99.90;;;;;;5094114;28;20230;-60
2022/05/31 10:04:26;;;;;;;8.07;1.77;;;15.80;99.90;;;;;;5093580;28;20220;-60
2022/05/31 10:07:01;;;;;;;5.43;2.10;;;15.70;99.90;;;;;;5094005;28;20176;-58
2022/05/31 10:09:55;;;;;;;5.07;1.80;;;15.70;99.90;;;;;;5093287;28;20224;-58
2022/05/31 10:12:26;;;;;;;2.30;1.15;;;15.70;99.90;;;;;;5093159;28;20168;-58
2022/05/31 10:14:56;;;;;;;2.58;1.48;;;15.80;99.90;;;;;;5093308;28;20270;-58
2022/05/31 10:17:30;;;;;;;6.47;1.65;;;15.70;99.90;;;;;;5093071;28;20298;-58
2022/05/31 10:20:28;;;;;;;3.83;1.90;;;15.60;99.90;;;;;;5093048;28;20178;-58
2022/05/31 10:23:13;;;;;;;9.85;1.70;;;15.50;99.90;;;;;;5093095;28;20648;-58
2022/05/31 10:25:49;;;;;;;2.65;1.60;;;15.50;99.90;;;;;;5091746;28;20175;-59
2022/05/31 10:28:39;;;;;;;4.10;2.08;;;15.60;99.90;;;;;;5092797;28;20172;-58
2022/05/31 10:31:33;;;;;;;2.38;1.40;;;16.10;99.90;;;;;;5092723;28;20267;-58
2022/05/31 10:34:01;;;;;;;3.75;1.50;;;16.60;99.90;;;;;;5092750;28;20168;-58
2022/05/31 10:36:30;;;;;;;3.47;1.20;;;16.40;99.90;;;;;;5093397;28;20191;-58
2022/05/31 10:39:09;;;;;;;3.92;1.20;;;16.40;99.90;;;;;;5093017;28;20175;-58
2022/05/31 10:41:37;;;;;;;2.25;1.08;;;16.60;99.90;;;;;;5092913;28;20642;-59
2022/05/31 10:44:31;;;;;;;3.25;1.55;;;16.60;99.90;;;;;;5092826;28;20202;-58
2022/05/31 10:47:07;;;;;;;4.22;1.30;;;17.40;99.90;;;;;;5090343;28;20180;-58
2022/05/31 10:49:34;;;;;;;4.43;1.40;;;18.20;99.90;;;;;;5092622;28;20245;-59
2022/05/31 10:52:35;;;;;;;5.80;1.58;;;18.50;99.90;;;;;;5092605;28;20198;-58
2022/05/31 10:55:11;;;;;;;3.30;1.80;;;18.60;99.90;;;;;;5092458;28;20179;-59
2022/05/31 10:57:48;;;;;;;10.30;1.63;;;18.20;99.90;;;;;;5092671;28;20589;-59
2022/05/31 11:00:20;;;;;;;4.75;1.73;;;17.90;99.90;;;;;;5092706;28;20528;-59
2022/05/31 11:02:58;;;;;;;2.10;1.30;;;17.50;99.90;;;;;;5092558;28;20179;-58
2022/05/31 11:05:50;;;;;;;2.47;1.30;;;16.90;99.90;;;;;;5092521;28;20164;-58
2022/05/31 11:11:30;;;;;;;3.33;1.20;;;15.50;99.90;;;;;;5092331;28;20182;-59
2022/05/31 11:14:33;;;;;;;1.95;1.33;;;15.40;99.90;;;;;;5092173;28;20643;-58
2022/05/31 11:17:07;;;;;;;1.95;1.13;;;16.00;99.90;;;;;;5092209;28;20219;-58
2022/05/31 11:19:39;;;;;;;3.65;1.00;;;16.90;99.90;;;;;;5092271;28;20210;-58
2022/05/31 11:22:38;;;;;;;4.57;1.10;;;18.40;99.90;;;;;;5091945;28;20182;-58
2022/05/31 11:25:46;;;;;;;2.97;1.23;;;18.10;99.90;;;;;;5091940;28;20202;-58
2022/05/31 11:28:38;;;;;;;5.13;1.30;;;18.20;99.90;;;;;;5088545;28;20180;-58
2022/05/31 11:31:21;;;;;;;2.53;1.10;;;20.30;99.90;;;;;;5091608;28;20178;-58
2022/05/31 11:34:20;;;;;;;2.70;1.27;;;20.40;99.90;;;;;;5091499;28;20187;-58
2022/05/31 11:36:56;;;;;;;3.35;1.30;;;20.30;99.90;;;;;;5091864;28;20164;-57
2022/05/31 11:40:04;;;;;;;5.47;1.80;;;21.10;99.90;;;;;;5091797;28;20656;-58
2022/05/31 11:42:41;;;;;;;5.43;1.98;;;20.10;99.90;;;;;;5092049;28;20174;-58
2022/05/31 11:45:27;;;;;;;6.40;2.22;;;19.90;99.90;;;;;;5091589;28;20172;-57
2022/05/31 11:48:11;;;;;;;8.00;2.38;;;19.80;99.90;;;;;;5091537;28;20186;-58
2022/05/31 11:51:06;;;;;;;8.77;2.63;;;19.70;99.90;;;;;;5091606;28;20180;-58
2022/05/31 11:53:59;;;;;;;8.52;2.45;;;20.10;99.90;;;;;;5086291;28;20652;-57
2022/05/31 11:56:44;;;;;;;5.15;2.00;;;19.70;99.90;;;;;;5091135;28;20549;-57
2022/05/31 11:59:24;;;;;;;9.90;2.60;;;19.50;99.90;;;;;;5090993;28;20167;-58
2022/05/31 12:02:04;;;;;;;6.70;2.65;;;19.60;99.90;;;;;;5089822;28;20168;-59
2022/05/31 12:04:51;;;;;;;10.32;2.75;;;19.50;99.90;;;;;;5091196;28;20279;-59
2022/05/31 12:07:20;;;;;;;7.43;2.85;;;19.90;99.90;;;;;;5091251;28;20589;-59
2022/05/31 12:10:09;;;;;;;11.27;2.50;;;20.50;99.90;;;;;;5091499;28;20783;-59
2022/05/31 12:12:36;;;;;;;3.75;2.08;;;21.50;99.90;;;;;;5090991;28;20168;-58
2022/05/31 12:15:21;;;;;;;4.97;2.20;;;20.90;99.90;;;;;;5090787;28;20651;-59
2022/05/31 12:18:08;;;;;;;7.60;2.55;;;19.60;99.90;;;;;;5090916;28;20251;-58
2022/05/31 12:21:02;;;;;;;8.45;2.55;;;17.50;99.90;;;;;;5090957;28;20180;-58
2022/05/31 12:23:54;;;;;;;7.28;2.67;;;17.50;99.90;;;;;;5091062;28;20224;-58
2022/05/31 12:26:38;;;;;;;11.55;2.80;;;16.90;99.90;;;;;;5090913;28;20667;-58
2022/05/31 12:29:12;;;;;;;6.07;2.65;;;16.70;99.90;;;;;;5090751;28;20320;-58
2022/05/31 12:31:39;;;;;;;8.30;2.92;;;16.70;99.90;;;;;;5090813;28;20163;-58
2022/05/31 12:34:31;;;;;;;7.88;2.88;;;17.40;99.90;;;;;;5090855;28;20226;-58
2022/05/31 12:37:02;;;;;;;9.32;2.67;;;17.40;99.90;;;;;;5090394;28;20171;-58
2022/05/31 12:39:30;;;;;;;8.88;2.50;;;18.00;99.90;;;;;;5090640;28;20171;-58
2022/05/31 12:41:58;;;;;;;4.60;2.10;;;18.60;99.90;;;;;;5090870;28;20264;-58
2022/05/31 12:44:33;;;;;;;6.60;2.47;;;20.00;99.90;;;;;;5090655;28;20175;-58
2022/05/31 12:47:29;;;;;;;7.20;2.20;;;20.80;99.90;;;;;;5090595;28;20175;-58
2022/05/31 12:50:04;;;;;;;4.32;2.08;;;20.60;99.90;;;;;;5090661;28;20268;-59
2022/05/31 12:55:26;;;;;;;3.95;1.83;;;20.60;99.90;;;;;;5090674;28;20164;-59
2022/05/31 13:00:52;;;;;;;5.60;2.17;;;20.60;99.90;;;;;;5090825;28;20236;-58
2022/05/31 13:03:33;;;;;;;7.55;2.50;;;19.50;99.90;;;;;;5090574;28;20172;-58
2022/05/31 13:06:20;;;;;;;7.90;1.85;;;18.40;99.90;;;;;;5090378;28;20737;-58
2022/05/31 13:08:49;;;;;;;6.95;2.20;;;18.30;99.90;;;;;;5090385;28;20203;-58
2022/05/31 13:20:11;;;;;;;5.40;1.63;;;18.20;99.90;;;;;;5090578;28;20221;-59
2022/05/31 13:22:38;;;;;;;6.32;1.50;;;18.30;99.90;;;;;;5090458;28;20168;-59
2022/05/31 13:25:50;;;;;;;4.35;1.60;;;18.60;99.90;;;;;;5090323;28;20207;-59
2022/05/31 13:28:25;;;;;;;5.43;1.30;;;18.40;99.90;;;;;;5089980;28;20203;-58
2022/05/31 13:30:51;;;;;;;5.30;1.65;;;18.40;99.90;;;;;;5092875;28;20183;-58
2022/05/31 13:33:22;;;;;;;3.17;1.33;;;17.70;99.90;;;;;;5094186;28;20266;-58
2022/05/31 13:36:21;;;;;;;6.72;1.73;;;17.20;99.90;;;;;;5094122;28;20167;-58
2022/05/31 13:38:51;;;;;;;5.88;1.50;;;17.40;99.90;;;;;;5089568;28;20215;-58
2022/05/31 13:41:20;;;;;;;8.80;1.70;;;17.30;99.90;;;;;;5093909;28;20644;-58
2022/05/31 13:43:56;;;;;;;4.28;1.70;;;17.20;99.90;;;;;;5093903;28;20197;-58
2022/05/31 13:46:38;;;;;;;7.53;1.85;;;18.80;99.90;;;;;;5094121;28;20182;-59
2022/05/31 13:49:18;;;;;;;9.05;2.42;;;18.40;99.90;;;;;;5093645;28;20211;-59
2022/05/31 13:51:51;;;;;;;8.15;1.58;;;18.70;99.90;;;;;;5093958;28;20180;-60
2022/05/31 13:54:21;;;;;;;8.82;1.77;;;19.10;99.90;;;;;;5093829;28;20259;-59